Time;durP1;ratioP1;P1;durP2;ratioP2;P2;SDS_P1;SDS_P2;PMS_P1;PMS_P2;Temp;Humidity;BMP_temperature;BMP_pressure;BME280_temperature;BME280_humidity;BME280_pressure;Samples;Min_cycle;Max_cycle;Signal;HPM_P1;HPM_P2
2023/01/15 00:00:16;;;;;;;9.98;2.78;;;6.70;99.90;;;;;;4997607;28;95269;-31
2023/01/15 00:02:42;;;;;;;7.72;2.78;;;6.70;99.90;;;;;;4997094;28;92420;-32
2023/01/15 00:05:07;;;;;;;18.13;2.95;;;6.70;99.90;;;;;;4997679;28;93978;-34
2023/01/15 00:07:33;;;;;;;8.05;2.78;;;6.70;99.90;;;;;;4996633;28;94367;-34
2023/01/15 00:09:59;;;;;;;9.20;3.40;;;6.70;99.90;;;;;;4996894;28;94917;-34
2023/01/15 00:12:24;;;;;;;6.03;3.10;;;6.70;99.90;;;;;;4997450;28;94291;-33
2023/01/15 00:14:50;;;;;;;14.48;3.83;;;6.70;99.90;;;;;;4997029;28;92548;-32
2023/01/15 00:17:15;;;;;;;8.77;2.30;;;6.70;99.90;;;;;;4997256;28;94229;-32
2023/01/15 00:19:41;;;;;;;10.35;2.22;;;6.70;99.90;;;;;;4996727;28;94545;-32
2023/01/15 00:22:06;;;;;;;10.55;3.13;;;6.60;99.90;;;;;;4996928;28;95655;-35
2023/01/15 00:30:01;;;;;;;6.93;3.28;;;6.70;99.90;;;;;;4997133;28;94690;-32
2023/01/15 00:32:28;;;;;;;7.95;2.53;;;6.70;99.90;;;;;;4997266;28;94630;-34
2023/01/15 00:34:54;;;;;;;11.65;3.00;;;6.70;99.90;;;;;;4997127;28;92106;-32
2023/01/15 00:37:20;;;;;;;5.72;2.58;;;6.70;99.90;;;;;;4996751;28;94178;-33
2023/01/15 00:39:46;;;;;;;10.95;2.75;;;6.70;99.90;;;;;;4996096;28;94611;-35
2023/01/15 00:42:12;;;;;;;5.55;3.08;;;6.70;99.90;;;;;;4996701;28;95215;-31
2023/01/15 00:44:37;;;;;;;7.22;2.58;;;6.70;99.90;;;;;;4996332;28;92221;-34
2023/01/15 00:47:03;;;;;;;8.80;3.03;;;6.70;99.90;;;;;;4997152;28;96133;-32
2023/01/15 00:49:29;;;;;;;5.90;2.58;;;6.60;99.90;;;;;;4982881;28;97234;-33
2023/01/15 00:51:54;;;;;;;9.13;2.33;;;6.60;99.90;;;;;;4996481;28;93637;-32
2023/01/15 00:54:20;;;;;;;10.00;3.40;;;6.70;99.90;;;;;;4996914;28;92948;-32
2023/01/15 00:56:46;;;;;;;21.92;3.78;;;6.60;99.90;;;;;;4996048;28;94930;-32
2023/01/15 00:59:11;;;;;;;7.82;2.72;;;6.60;99.90;;;;;;4997121;28;94685;-33
2023/01/15 01:01:37;;;;;;;7.00;2.90;;;6.70;99.90;;;;;;4995842;28;94111;-32
2023/01/15 01:04:03;;;;;;;8.20;3.25;;;6.70;99.90;;;;;;4996799;28;92658;-35
2023/01/15 01:06:29;;;;;;;10.20;2.88;;;6.70;99.90;;;;;;4995930;28;94682;-32
2023/01/15 01:08:55;;;;;;;13.05;3.03;;;6.70;99.90;;;;;;4995964;28;93491;-32
2023/01/15 01:11:25;;;;;;;11.93;2.50;;;6.70;99.90;;;;;;4996664;28;93452;-33
2023/01/15 01:13:52;;;;;;;9.73;3.45;;;6.80;99.90;;;;;;4996899;28;93848;-35
2023/01/15 01:16:29;;;;;;;9.38;3.33;;;6.70;99.90;;;;;;4996176;28;94370;-34
2023/01/15 01:18:57;;;;;;;11.18;2.92;;;6.70;99.90;;;;;;4981685;28;94510;-34
2023/01/15 01:21:23;;;;;;;9.70;3.33;;;6.70;99.90;;;;;;4996417;28;93086;-34
2023/01/15 01:23:49;;;;;;;12.45;2.95;;;6.70;99.90;;;;;;4996079;28;93964;-33
2023/01/15 01:26:14;;;;;;;6.47;2.30;;;6.70;99.90;;;;;;4996414;28;94298;-32
2023/01/15 01:28:41;;;;;;;5.97;2.45;;;6.70;99.90;;;;;;4997011;28;93062;-32
2023/01/15 01:31:07;;;;;;;9.77;3.30;;;6.60;99.90;;;;;;4996572;28;94449;-33
2023/01/15 01:33:33;;;;;;;5.15;2.53;;;6.70;99.90;;;;;;4995985;28;93211;-31
2023/01/15 01:35:59;;;;;;;9.10;2.78;;;6.70;99.90;;;;;;4996016;28;95176;-32
2023/01/15 01:38:25;;;;;;;8.18;2.45;;;6.70;99.90;;;;;;4996420;28;95543;-33
2023/01/15 01:40:51;;;;;;;18.73;3.42;;;6.70;99.90;;;;;;4995959;28;92535;-34
2023/01/15 01:43:22;;;;;;;11.50;3.10;;;6.70;99.90;;;;;;4995538;28;92599;-32
2023/01/15 01:45:48;;;;;;;13.85;3.35;;;6.70;99.90;;;;;;4996061;28;94474;-34
2023/01/15 01:48:15;;;;;;;10.32;2.80;;;6.70;99.90;;;;;;4996081;28;94761;-34
2023/01/15 01:50:42;;;;;;;14.88;3.10;;;6.70;99.90;;;;;;4995481;28;94424;-31
2023/01/15 01:53:15;;;;;;;12.38;3.55;;;6.70;99.90;;;;;;4999440;28;92765;-32
2023/01/15 01:55:41;;;;;;;4.40;2.53;;;6.70;99.90;;;;;;4998981;28;94791;-31
2023/01/15 01:58:11;;;;;;;19.35;3.15;;;6.70;99.90;;;;;;4998808;28;93995;-34
2023/01/15 02:00:40;;;;;;;9.23;3.15;;;6.70;99.90;;;;;;4981078;28;95219;-34
2023/01/15 02:03:07;;;;;;;10.15;2.85;;;6.70;99.90;;;;;;4999902;28;92883;-31
2023/01/15 02:05:38;;;;;;;6.60;2.33;;;6.70;99.90;;;;;;4999200;28;94493;-32
2023/01/15 02:08:05;;;;;;;13.20;3.35;;;6.60;99.90;;;;;;4999293;28;94103;-34
2023/01/15 02:10:31;;;;;;;10.73;3.03;;;6.60;99.90;;;;;;4999860;28;94411;-34
2023/01/15 02:12:56;;;;;;;14.30;3.60;;;6.60;99.90;;;;;;4996398;28;92231;-31
2023/01/15 02:15:35;;;;;;;5.90;2.45;;;6.60;99.90;;;;;;4999268;28;94870;-32
2023/01/15 02:18:21;;;;;;;12.02;3.70;;;6.70;99.90;;;;;;4995979;28;94052;-32
2023/01/15 02:20:59;;;;;;;11.38;3.63;;;6.70;99.90;;;;;;4998094;28;92580;-32
2023/01/15 02:23:48;;;;;;;13.25;2.80;;;6.70;99.90;;;;;;4998409;28;93080;-33
2023/01/15 02:26:38;;;;;;;7.63;3.00;;;6.70;99.90;;;;;;4985886;28;96147;-32
2023/01/15 02:29:09;;;;;;;10.60;2.90;;;6.70;99.90;;;;;;4998366;28;95137;-33
2023/01/15 02:31:38;;;;;;;9.57;3.28;;;6.70;99.90;;;;;;4999059;28;92183;-33
2023/01/15 02:34:22;;;;;;;18.98;3.45;;;6.70;99.90;;;;;;4998627;28;93974;-33
2023/01/15 02:36:55;;;;;;;7.38;2.78;;;6.60;99.90;;;;;;4997860;28;94880;-32
2023/01/15 02:39:23;;;;;;;12.77;3.05;;;6.60;99.90;;;;;;4998903;28;94511;-31
2023/01/15 02:41:52;;;;;;;10.25;2.90;;;6.60;99.90;;;;;;4998111;28;92778;-34
2023/01/15 02:44:22;;;;;;;11.73;3.28;;;6.60;99.90;;;;;;4998167;28;92978;-32
2023/01/15 02:46:48;;;;;;;10.57;3.28;;;6.70;99.90;;;;;;4998274;28;94715;-31
2023/01/15 02:49:18;;;;;;;13.00;3.28;;;6.70;99.90;;;;;;4999018;28;94904;-33
2023/01/15 02:51:57;;;;;;;8.75;3.30;;;6.60;99.90;;;;;;4998589;28;94064;-32
2023/01/15 02:54:26;;;;;;;9.68;3.35;;;6.60;99.90;;;;;;4998651;28;94493;-33
2023/01/15 02:56:53;;;;;;;15.73;4.10;;;6.50;99.90;;;;;;4980352;28;94525;-33
2023/01/15 02:59:32;;;;;;;11.90;5.05;;;6.50;99.90;;;;;;4998272;28;94686;-32
2023/01/15 03:02:03;;;;;;;11.15;3.05;;;6.50;99.90;;;;;;4998481;28;94246;-34
2023/01/15 03:05:06;;;;;;;7.07;3.10;;;6.50;99.90;;;;;;4997866;28;92158;-33
2023/01/15 03:07:53;;;;;;;8.90;3.20;;;6.50;99.90;;;;;;4988491;28;94792;-32
2023/01/15 03:10:21;;;;;;;15.82;3.47;;;6.50;99.90;;;;;;4998122;28;94928;-32
2023/01/15 03:13:01;;;;;;;11.77;4.18;;;6.50;99.90;;;;;;4997865;28;94110;-33
2023/01/15 03:18:50;;;;;;;11.93;2.90;;;6.50;99.90;;;;;;4996862;28;95708;-33
2023/01/15 03:21:21;;;;;;;9.05;3.75;;;6.50;99.90;;;;;;4997424;28;96042;-33
2023/01/15 03:23:53;;;;;;;10.05;2.88;;;6.40;99.90;;;;;;4997858;28;93471;-34
2023/01/15 03:26:19;;;;;;;11.10;2.88;;;6.50;99.90;;;;;;4998571;28;94206;-33
2023/01/15 03:28:46;;;;;;;11.65;3.15;;;6.50;99.90;;;;;;4997270;28;94358;-34
2023/01/15 03:31:12;;;;;;;12.05;3.10;;;6.60;99.90;;;;;;4997533;28;94548;-31
2023/01/15 03:33:38;;;;;;;11.90;3.33;;;6.50;99.90;;;;;;4997948;28;93567;-34
2023/01/15 03:36:04;;;;;;;10.43;2.35;;;6.50;99.90;;;;;;4997658;28;92530;-31
2023/01/15 03:38:37;;;;;;;9.25;3.25;;;6.50;99.90;;;;;;4997424;28;95159;-32
2023/01/15 03:41:23;;;;;;;9.40;3.30;;;6.40;99.90;;;;;;4997128;28;94325;-33
2023/01/15 03:44:07;;;;;;;14.27;3.20;;;6.40;99.90;;;;;;4997004;28;94397;-32
2023/01/15 03:46:40;;;;;;;10.93;3.75;;;6.40;99.90;;;;;;4998245;28;92177;-31
2023/01/15 03:49:06;;;;;;;19.05;4.15;;;6.40;99.90;;;;;;4997351;28;95070;-31
2023/01/15 03:51:41;;;;;;;13.57;3.40;;;6.40;99.90;;;;;;4997423;28;94317;-33
2023/01/15 03:54:14;;;;;;;15.55;4.13;;;6.40;99.90;;;;;;4997855;28;94572;-33
2023/01/15 03:56:54;;;;;;;12.90;4.00;;;6.40;99.90;;;;;;4997731;28;92195;-32
2023/01/15 03:59:38;;;;;;;10.00;3.83;;;6.30;99.90;;;;;;4997022;28;93364;-32
2023/01/15 04:02:08;;;;;;;9.38;3.13;;;6.30;99.90;;;;;;4997313;28;94499;-32
2023/01/15 04:04:33;;;;;;;13.90;3.90;;;6.40;99.90;;;;;;4997457;28;94383;-31
2023/01/15 04:07:01;;;;;;;11.88;3.65;;;6.30;99.90;;;;;;4997832;28;93799;-34
2023/01/15 04:09:27;;;;;;;11.60;3.23;;;6.40;99.90;;;;;;4996952;28;96379;-33
2023/01/15 04:11:53;;;;;;;10.07;4.53;;;6.40;99.90;;;;;;4997174;28;95545;-31
2023/01/15 04:14:18;;;;;;;11.38;3.92;;;6.30;99.90;;;;;;4997187;28;92717;-32
2023/01/15 04:16:44;;;;;;;8.32;2.92;;;6.40;99.90;;;;;;4996305;28;93991;-33
2023/01/15 04:19:09;;;;;;;22.85;4.40;;;6.30;99.90;;;;;;4997474;28;94601;-32
2023/01/15 04:21:35;;;;;;;9.88;4.07;;;6.40;99.90;;;;;;4996900;28;93456;-33
2023/01/15 04:24:00;;;;;;;9.63;3.10;;;6.40;99.90;;;;;;4979126;28;93105;-30
2023/01/15 04:26:26;;;;;;;9.60;2.85;;;6.40;99.90;;;;;;4997453;28;94141;-31
2023/01/15 04:28:52;;;;;;;6.75;3.33;;;6.40;99.90;;;;;;4995908;28;94664;-32
2023/01/15 04:31:17;;;;;;;12.05;4.18;;;6.30;99.90;;;;;;4997335;28;94695;-32
2023/01/15 04:33:43;;;;;;;17.15;3.78;;;6.40;99.90;;;;;;4996224;28;95772;-34
2023/01/15 04:36:09;;;;;;;15.35;4.28;;;6.30;99.90;;;;;;4997673;28;92968;-33
2023/01/15 04:38:37;;;;;;;12.85;2.75;;;6.40;99.90;;;;;;4996834;28;94611;-34
2023/01/15 04:44:07;;;;;;;6.45;3.17;;;6.40;99.90;;;;;;4996531;28;94266;-33
2023/01/15 04:46:41;;;;;;;13.75;3.60;;;6.40;99.90;;;;;;4997131;28;94536;-32
2023/01/15 04:49:13;;;;;;;17.08;3.53;;;6.40;99.90;;;;;;4996311;28;94667;-33
2023/01/15 04:51:38;;;;;;;5.13;2.95;;;6.30;99.90;;;;;;4996277;28;94725;-33
2023/01/15 04:54:06;;;;;;;18.67;3.80;;;6.30;99.90;;;;;;4996842;28;94875;-35
2023/01/15 04:56:37;;;;;;;9.95;3.50;;;6.40;99.90;;;;;;4997504;28;94245;-32
2023/01/15 04:59:03;;;;;;;10.93;3.35;;;6.30;99.90;;;;;;4996310;28;95216;-32
2023/01/15 05:01:29;;;;;;;7.70;3.47;;;6.30;99.90;;;;;;4996008;28;95257;-33
2023/01/15 05:03:54;;;;;;;16.23;3.95;;;6.30;99.90;;;;;;4996098;28;92801;-34
2023/01/15 05:06:20;;;;;;;6.03;3.80;;;6.30;99.90;;;;;;4997110;28;94841;-31
2023/01/15 05:08:45;;;;;;;9.32;3.55;;;6.30;99.90;;;;;;4995948;28;94466;-32
2023/01/15 05:11:11;;;;;;;7.85;2.83;;;6.30;99.90;;;;;;4996647;28;93849;-34
2023/01/15 05:13:37;;;;;;;20.27;4.30;;;6.40;99.90;;;;;;4996301;28;92974;-31
2023/01/15 05:16:10;;;;;;;6.57;3.13;;;6.40;99.90;;;;;;4996986;28;91485;-35
2023/01/15 05:18:36;;;;;;;7.05;3.15;;;6.40;99.90;;;;;;4981929;28;95257;-33
2023/01/15 05:21:02;;;;;;;19.38;3.85;;;6.40;99.90;;;;;;4996591;28;94871;-33
2023/01/15 05:23:27;;;;;;;15.77;4.30;;;6.40;99.90;;;;;;4995888;28;95724;-34
2023/01/15 05:25:53;;;;;;;10.40;2.85;;;6.40;99.90;;;;;;4996100;28;94100;-35
2023/01/15 05:28:18;;;;;;;18.50;3.45;;;6.30;99.90;;;;;;4999253;28;95335;-32
2023/01/15 05:30:44;;;;;;;16.67;3.95;;;6.30;99.90;;;;;;4998972;28;93673;-33
2023/01/15 05:33:09;;;;;;;15.70;4.40;;;6.30;99.90;;;;;;4999956;28;92806;-32
2023/01/15 05:35:35;;;;;;;13.43;3.15;;;6.30;99.90;;;;;;4999948;28;94737;-37
2023/01/15 05:38:04;;;;;;;12.57;4.35;;;6.30;99.90;;;;;;4999859;28;93538;-31
2023/01/15 05:40:30;;;;;;;11.77;4.05;;;6.20;99.90;;;;;;4982151;28;94952;-32
2023/01/15 05:42:56;;;;;;;9.50;3.70;;;6.20;99.90;;;;;;4999214;28;94256;-33
2023/01/15 05:45:22;;;;;;;13.27;3.90;;;6.30;99.90;;;;;;4999967;28;93867;-36
2023/01/15 05:47:47;;;;;;;4.85;2.97;;;6.20;99.90;;;;;;4998946;28;96285;-32
2023/01/15 05:50:13;;;;;;;9.95;2.95;;;6.20;99.90;;;;;;4999410;28;95197;-32
2023/01/15 05:52:38;;;;;;;9.65;3.83;;;6.10;99.90;;;;;;4999357;28;93457;-33
2023/01/15 05:55:04;;;;;;;9.63;3.22;;;6.10;99.90;;;;;;4999130;28;94312;-32
2023/01/15 05:57:31;;;;;;;10.43;3.28;;;6.10;99.90;;;;;;4998917;28;94673;-33
2023/01/15 05:59:57;;;;;;;11.27;3.47;;;6.00;99.90;;;;;;4999574;28;94514;-31
2023/01/15 06:02:23;;;;;;;4.95;2.10;;;6.00;99.90;;;;;;4998657;28;92102;-34
2023/01/15 06:04:49;;;;;;;5.00;2.03;;;6.00;99.90;;;;;;4999461;28;93221;-33
2023/01/15 06:07:16;;;;;;;12.38;3.40;;;6.00;99.90;;;;;;4981036;28;94693;-33
2023/01/15 06:09:43;;;;;;;8.52;3.28;;;5.90;99.90;;;;;;4998678;28;94311;-31
2023/01/15 06:12:08;;;;;;;7.40;2.80;;;6.00;99.90;;;;;;4999322;28;94210;-32
2023/01/15 06:14:34;;;;;;;8.15;2.80;;;6.00;99.90;;;;;;4999002;28;94214;-33
2023/01/15 06:16:59;;;;;;;14.68;2.80;;;6.00;99.90;;;;;;4998688;28;94994;-32
2023/01/15 06:19:25;;;;;;;10.88;2.97;;;6.00;99.90;;;;;;4999322;28;94589;-32
2023/01/15 06:21:51;;;;;;;14.18;2.90;;;5.90;99.90;;;;;;4998643;28;92413;-32
2023/01/15 06:24:18;;;;;;;8.93;3.42;;;5.90;99.90;;;;;;4999763;28;94679;-32
2023/01/15 06:26:44;;;;;;;11.10;3.10;;;5.90;99.90;;;;;;4998647;28;93510;-30
2023/01/15 06:29:10;;;;;;;7.43;2.90;;;5.90;99.90;;;;;;4998222;28;94692;-33
2023/01/15 06:31:35;;;;;;;8.43;3.00;;;6.00;99.90;;;;;;4999050;28;92737;-36
2023/01/15 06:34:01;;;;;;;7.30;1.73;;;5.90;99.90;;;;;;4998115;28;92674;-33
2023/01/15 06:36:28;;;;;;;5.32;2.45;;;5.90;99.90;;;;;;4998367;28;95805;-34
2023/01/15 06:38:53;;;;;;;9.13;3.42;;;5.90;99.90;;;;;;4997074;28;94035;-32
2023/01/15 06:49:38;;;;;;;9.40;3.00;;;5.80;99.90;;;;;;4984193;28;94323;-31
2023/01/15 06:52:05;;;;;;;11.20;3.10;;;5.80;99.90;;;;;;4998572;28;94566;-34
2023/01/15 06:54:31;;;;;;;11.98;3.70;;;5.80;99.90;;;;;;4998697;28;92776;-32
2023/01/15 06:56:56;;;;;;;10.38;2.75;;;5.80;99.90;;;;;;4997911;28;94213;-34
2023/01/15 06:59:22;;;;;;;6.40;2.42;;;5.70;99.90;;;;;;4998157;28;94386;-34
2023/01/15 07:01:48;;;;;;;14.80;3.40;;;5.80;99.90;;;;;;4997579;28;95650;-32
2023/01/15 07:04:14;;;;;;;15.38;3.20;;;5.80;99.90;;;;;;4997969;28;93258;-32
2023/01/15 07:06:40;;;;;;;9.48;3.03;;;5.80;99.90;;;;;;4998493;28;94224;-31
2023/01/15 07:09:06;;;;;;;9.15;3.08;;;5.70;99.90;;;;;;4998237;28;94566;-31
2023/01/15 07:11:31;;;;;;;13.40;3.72;;;5.80;99.90;;;;;;4998827;28;94457;-35
2023/01/15 07:14:06;;;;;;;6.13;2.65;;;5.80;99.90;;;;;;4997723;28;93197;-33
2023/01/15 07:16:33;;;;;;;8.45;3.65;;;5.70;99.90;;;;;;4997926;28;94595;-33
2023/01/15 07:18:58;;;;;;;10.73;3.45;;;5.70;99.90;;;;;;4979872;28;93501;-32
2023/01/15 07:21:24;;;;;;;6.32;2.67;;;5.70;99.90;;;;;;4998653;28;92552;-32
2023/01/15 07:23:50;;;;;;;6.85;2.88;;;5.70;99.90;;;;;;4998001;28;94230;-32
2023/01/15 07:26:15;;;;;;;4.43;2.22;;;5.80;99.90;;;;;;4997575;28;95641;-33
2023/01/15 07:28:41;;;;;;;5.43;2.25;;;5.70;99.90;;;;;;4997348;28;95406;-32
2023/01/15 07:31:06;;;;;;;11.00;3.15;;;5.70;99.90;;;;;;4998639;28;93272;-32
2023/01/15 07:33:32;;;;;;;12.48;2.95;;;5.80;99.90;;;;;;4998026;28;94426;-31
2023/01/15 07:36:01;;;;;;;12.38;4.15;;;5.60;99.90;;;;;;4997725;28;94031;-33
2023/01/15 07:38:27;;;;;;;7.95;3.70;;;5.60;99.90;;;;;;4997500;28;94558;-33
2023/01/15 07:51:54;;;;;;;5.85;1.80;;;5.50;99.90;;;;;;4997053;28;94017;-32
2023/01/15 07:54:19;;;;;;;8.02;2.90;;;5.60;99.90;;;;;;4997341;28;92297;-32
2023/01/15 07:56:45;;;;;;;6.50;2.33;;;5.60;99.90;;;;;;4996954;28;95065;-31
2023/01/15 07:59:11;;;;;;;14.50;2.53;;;5.60;99.90;;;;;;4997371;28;93500;-32
2023/01/15 08:01:36;;;;;;;5.57;3.00;;;5.50;99.90;;;;;;4996942;28;93516;-32
2023/01/15 08:04:02;;;;;;;7.13;2.17;;;5.50;99.90;;;;;;4997300;28;94431;-31
2023/01/15 08:06:28;;;;;;;11.88;3.10;;;5.50;99.90;;;;;;4997239;28;94812;-31
2023/01/15 08:08:53;;;;;;;12.48;3.85;;;5.50;99.90;;;;;;4997158;28;94454;-34
2023/01/15 08:16:47;;;;;;;7.38;1.98;;;5.60;99.90;;;;;;4996736;28;96027;-32
2023/01/15 08:19:13;;;;;;;9.05;3.08;;;5.50;99.90;;;;;;4996805;28;95493;-33
2023/01/15 08:21:39;;;;;;;12.25;3.45;;;5.50;99.90;;;;;;4995752;28;92154;-34
2023/01/15 08:24:04;;;;;;;8.20;2.38;;;5.50;99.90;;;;;;4992464;28;94519;-32
2023/01/15 08:26:30;;;;;;;5.95;2.60;;;5.50;99.90;;;;;;4994470;28;94746;-35
2023/01/15 08:28:56;;;;;;;7.18;2.25;;;5.50;99.90;;;;;;4996574;28;95059;-32
2023/01/15 08:31:21;;;;;;;11.18;2.65;;;5.50;99.90;;;;;;4997150;28;94532;-32
2023/01/15 08:33:47;;;;;;;9.32;3.15;;;5.50;99.90;;;;;;4996868;28;92704;-33
2023/01/15 08:36:14;;;;;;;9.13;2.47;;;5.60;99.90;;;;;;4995804;28;94561;-32
2023/01/15 08:38:40;;;;;;;4.28;2.40;;;5.60;99.90;;;;;;4996196;28;94275;-31
2023/01/15 08:41:06;;;;;;;9.93;2.92;;;5.60;99.90;;;;;;4995574;28;94834;-33
2023/01/15 08:43:32;;;;;;;4.07;2.67;;;5.60;99.90;;;;;;4995085;28;92521;-34
2023/01/15 08:45:59;;;;;;;4.93;2.53;;;5.60;99.90;;;;;;4996328;28;94849;-34
2023/01/15 08:48:27;;;;;;;8.25;2.67;;;5.70;99.90;;;;;;4996864;28;94830;-31
2023/01/15 08:50:53;;;;;;;6.57;3.03;;;5.70;99.90;;;;;;4996435;28;93364;-31
2023/01/15 08:53:19;;;;;;;6.20;2.92;;;5.70;99.90;;;;;;4995793;28;93344;-34
2023/01/15 08:55:48;;;;;;;11.88;2.38;;;5.70;99.90;;;;;;4996784;28;94590;-33
2023/01/15 08:58:15;;;;;;;11.57;3.35;;;5.80;99.90;;;;;;4997396;28;94151;-31
2023/01/15 09:00:41;;;;;;;12.02;2.95;;;5.80;99.90;;;;;;4996281;28;94521;-33
2023/01/15 09:03:07;;;;;;;8.27;3.13;;;5.90;99.90;;;;;;5002457;28;94387;-35
2023/01/15 09:05:32;;;;;;;5.10;2.53;;;5.90;99.90;;;;;;5002180;28;97048;-32
2023/01/15 09:07:58;;;;;;;4.72;2.58;;;6.00;99.90;;;;;;5002479;28;95422;-32
2023/01/15 09:10:24;;;;;;;9.90;2.75;;;6.00;99.90;;;;;;5003454;28;92626;-34
2023/01/15 09:12:50;;;;;;;4.13;2.65;;;5.90;99.90;;;;;;5002702;28;94504;-33
2023/01/15 09:15:16;;;;;;;5.40;2.08;;;5.90;99.90;;;;;;5002486;28;92892;-35
2023/01/15 09:17:42;;;;;;;9.07;2.50;;;5.90;99.90;;;;;;5001285;28;94634;-34
2023/01/15 09:20:09;;;;;;;5.60;2.10;;;5.70;99.90;;;;;;4998528;28;94512;-32
2023/01/15 09:22:35;;;;;;;4.13;1.97;;;5.60;99.90;;;;;;5002503;28;93471;-35
2023/01/15 09:25:02;;;;;;;5.80;1.38;;;5.40;99.90;;;;;;5003093;28;95371;-31
2023/01/15 09:27:28;;;;;;;5.70;1.45;;;5.10;99.90;;;;;;5001236;28;94829;-33
2023/01/15 09:29:54;;;;;;;4.43;1.98;;;5.00;99.90;;;;;;5000398;28;95306;-34
2023/01/15 09:32:20;;;;;;;2.13;1.08;;;4.80;99.90;;;;;;4999701;28;94266;-34
2023/01/15 09:34:46;;;;;;;2.13;0.88;;;4.70;99.90;;;;;;4998106;28;94978;-35
2023/01/15 09:37:11;;;;;;;4.00;1.58;;;4.70;99.90;;;;;;5000043;28;93021;-32
2023/01/15 09:39:37;;;;;;;2.63;1.42;;;4.60;99.90;;;;;;5000705;28;94513;-31
2023/01/15 09:42:35;;;;;;;5.22;2.10;;;4.60;99.90;;;;;;5035051;22;93544;-31
2023/01/15 09:45:07;;;;;;;3.13;1.83;;;4.60;99.90;;;;;;5001034;28;95067;-33
2023/01/15 09:47:47;;;;;;;2.88;1.80;;;4.60;99.90;;;;;;4999799;28;94254;-32
2023/01/15 09:50:33;;;;;;;5.93;1.60;;;4.60;99.90;;;;;;5000742;28;92418;-32
2023/01/15 09:53:14;;;;;;;3.40;2.08;;;4.50;99.90;;;;;;5004098;28;93202;-32
2023/01/15 09:55:45;;;;;;;4.47;1.88;;;4.50;99.90;;;;;;5011958;28;95987;-33
2023/01/15 09:58:14;;;;;;;6.75;2.95;;;4.40;99.90;;;;;;5008589;28;95788;-30
2023/01/15 10:00:44;;;;;;;6.00;2.80;;;4.50;99.90;;;;;;4985673;28;93031;-35
2023/01/15 10:03:10;;;;;;;7.43;2.38;;;4.60;99.90;;;;;;4991957;28;94475;-33
2023/01/15 10:05:54;;;;;;;6.10;1.98;;;4.60;99.90;;;;;;4998520;28;95300;-36
2023/01/15 10:08:36;;;;;;;6.15;2.33;;;4.70;99.90;;;;;;5005311;28;94397;-32
2023/01/15 10:11:13;;;;;;;5.90;2.10;;;4.70;99.90;;;;;;5015865;27;93523;-34
2023/01/15 10:13:47;;;;;;;6.43;2.72;;;4.70;99.90;;;;;;4988568;28;92392;-32
2023/01/15 10:16:21;;;;;;;3.47;2.15;;;4.80;99.90;;;;;;5008086;28;94862;-35
2023/01/15 10:18:46;;;;;;;5.10;1.75;;;4.90;99.90;;;;;;5014151;27;93805;-33
2023/01/15 10:21:28;;;;;;;4.32;2.25;;;4.90;99.90;;;;;;5003409;27;94303;-35
2023/01/15 10:23:54;;;;;;;5.28;2.10;;;4.90;99.90;;;;;;4996425;28;92953;-32
2023/01/15 10:26:37;;;;;;;5.38;1.65;;;4.80;99.90;;;;;;4996088;28;93256;-33
2023/01/15 10:29:12;;;;;;;8.27;2.60;;;4.80;99.90;;;;;;4997184;28;94315;-34
2023/01/15 10:31:52;;;;;;;3.80;1.77;;;4.70;99.90;;;;;;4996249;28;92779;-33
2023/01/15 10:34:35;;;;;;;8.88;2.88;;;4.80;99.90;;;;;;4996379;28;93290;-34
2023/01/15 10:37:22;;;;;;;8.48;2.38;;;4.70;99.90;;;;;;4996501;28;96053;-30
2023/01/15 10:40:03;;;;;;;13.77;3.60;;;4.80;99.90;;;;;;4996245;28;94080;-34
2023/01/15 10:42:39;;;;;;;9.65;3.38;;;4.80;99.90;;;;;;4995959;28;93420;-32
2023/01/15 10:45:25;;;;;;;11.02;2.90;;;4.80;99.90;;;;;;4995779;28;93282;-34
2023/01/15 10:48:03;;;;;;;3.97;2.40;;;4.80;99.90;;;;;;4995239;28;94339;-35
2023/01/15 10:50:28;;;;;;;8.80;3.38;;;4.70;99.90;;;;;;4996442;28;94938;-34
2023/01/15 10:53:25;;;;;;;5.03;2.35;;;4.80;99.90;;;;;;4996472;28;93349;-32
2023/01/15 10:55:58;;;;;;;9.00;2.90;;;4.90;99.90;;;;;;4995656;28;94152;-31
2023/01/15 10:58:27;;;;;;;6.00;2.78;;;5.00;99.90;;;;;;4996360;28;95386;-32
2023/01/15 11:00:57;;;;;;;;;;;5.00;99.90;;;;;;4995990;28;94719;-32
2023/01/15 11:03:47;;;;;;;6.35;2.22;;;5.20;99.90;;;;;;4997949;28;93780;-33
2023/01/15 11:06:18;;;;;;;6.90;2.20;;;5.20;99.90;;;;;;4995799;28;93532;-36
2023/01/15 11:08:54;;;;;;;8.13;3.17;;;5.30;99.90;;;;;;4996049;28;94667;-33
2023/01/15 11:19:39;;;;;;;8.65;2.90;;;5.10;99.90;;;;;;4996141;28;94780;-33
2023/01/15 11:22:16;;;;;;;9.55;3.38;;;5.20;99.90;;;;;;4996110;28;94676;-31
2023/01/15 11:24:51;;;;;;;13.65;4.00;;;5.30;99.90;;;;;;4994887;28;94449;-34
2023/01/15 11:27:24;;;;;;;11.30;2.72;;;5.40;99.90;;;;;;4995466;28;94146;-33
2023/01/15 11:29:53;;;;;;;5.72;3.13;;;5.50;99.90;;;;;;4995658;28;96157;-33
2023/01/15 11:32:31;;;;;;;7.78;2.47;;;5.50;99.90;;;;;;4995701;28;94475;-31
2023/01/15 11:34:59;;;;;;;11.55;3.38;;;5.60;99.90;;;;;;4995467;28;93048;-31
2023/01/15 11:37:26;;;;;;;9.05;2.63;;;5.70;99.90;;;;;;5010079;28;92980;-33
2023/01/15 11:39:54;;;;;;;16.27;2.83;;;5.70;99.90;;;;;;4995046;28;93917;-34
2023/01/15 11:51:00;;;;;;;6.10;2.20;;;6.10;99.90;;;;;;4996854;28;94705;-33
2023/01/15 11:53:31;;;;;;;8.27;3.42;;;6.20;99.90;;;;;;5003774;28;94324;-35
2023/01/15 11:56:05;;;;;;;16.60;4.22;;;6.20;99.90;;;;;;5005908;27;93714;-33
2023/01/15 11:58:41;;;;;;;8.48;2.30;;;6.30;99.90;;;;;;5003615;28;91370;-32
2023/01/15 12:01:06;;;;;;;10.43;2.92;;;6.40;99.90;;;;;;5004706;28;95412;-32
2023/01/15 12:03:34;;;;;;;9.48;2.45;;;6.50;99.90;;;;;;5002911;28;94264;-32
2023/01/15 12:06:06;;;;;;;12.13;2.53;;;6.60;99.90;;;;;;5006298;27;95374;-35
2023/01/15 12:08:37;;;;;;;9.60;2.20;;;6.60;99.90;;;;;;4996709;28;94877;-33
2023/01/15 12:11:28;;;;;;;7.63;2.70;;;6.70;99.90;;;;;;5007404;28;94334;-35
2023/01/15 12:14:27;;;;;;;17.08;3.70;;;6.80;99.90;;;;;;5012773;28;95025;-32
2023/01/15 12:16:59;;;;;;;11.38;3.70;;;7.00;99.90;;;;;;5009245;28;93932;-34
2023/01/15 12:19:44;;;;;;;5.90;2.40;;;7.10;99.90;;;;;;5013699;28;92693;-31
2023/01/15 12:22:28;;;;;;;13.50;2.78;;;7.10;99.90;;;;;;4995547;28;94386;-32
2023/01/15 12:25:14;;;;;;;8.50;2.58;;;7.00;99.90;;;;;;4997385;28;92729;-31
2023/01/15 12:27:57;;;;;;;9.38;3.03;;;7.00;99.90;;;;;;4997108;28;94622;-34
2023/01/15 12:30:34;;;;;;;6.88;2.88;;;6.90;99.90;;;;;;4996934;28;92338;-33
2023/01/15 12:33:08;;;;;;;9.85;3.25;;;6.90;99.90;;;;;;4996129;28;95371;-35
2023/01/15 12:35:40;;;;;;;13.70;4.25;;;6.90;99.90;;;;;;4995671;28;94490;-33
2023/01/15 12:38:15;;;;;;;12.48;2.83;;;6.80;99.90;;;;;;5011859;28;93078;-31
2023/01/15 12:40:59;;;;;;;13.95;4.20;;;6.90;99.90;;;;;;4995789;28;93135;-33
2023/01/15 12:46:27;;;;;;;4.03;2.58;;;6.90;99.90;;;;;;4996631;28;94747;-32
2023/01/15 12:49:08;;;;;;;7.65;3.28;;;6.90;99.90;;;;;;4996810;28;93030;-33
2023/01/15 12:51:57;;;;;;;5.45;2.47;;;6.90;99.90;;;;;;4985133;28;92334;-33
2023/01/15 12:54:32;;;;;;;5.88;2.20;;;6.80;99.90;;;;;;4996772;28;95547;-32
2023/01/15 12:57:23;;;;;;;5.25;2.38;;;6.80;99.90;;;;;;4996917;28;94505;-33
2023/01/15 12:59:56;;;;;;;4.60;2.53;;;6.80;99.90;;;;;;4995849;28;93634;-31
2023/01/15 13:03:07;;;;;;;9.07;2.72;;;6.80;99.90;;;;;;4996735;28;93422;-32
2023/01/15 13:05:46;;;;;;;6.47;2.35;;;7.00;99.90;;;;;;4984999;28;94296;-32
2023/01/15 13:08:12;;;;;;;8.38;2.45;;;7.00;99.90;;;;;;5011970;28;93836;-32
2023/01/15 13:10:39;;;;;;;7.70;2.88;;;7.00;99.90;;;;;;4996045;28;94524;-31
2023/01/15 13:13:14;;;;;;;6.30;2.30;;;7.00;99.90;;;;;;4996614;28;93111;-31
2023/01/15 13:15:51;;;;;;;6.78;2.80;;;6.90;99.90;;;;;;4996119;28;93138;-34
2023/01/15 13:18:38;;;;;;;8.90;3.00;;;7.00;99.90;;;;;;4996489;28;94180;-32
2023/01/15 13:21:12;;;;;;;7.65;2.70;;;6.80;99.90;;;;;;4996187;28;93054;-33
2023/01/15 13:23:50;;;;;;;5.65;1.85;;;6.80;99.90;;;;;;4995699;28;93258;-34
2023/01/15 13:26:46;;;;;;;4.33;1.63;;;6.70;99.90;;;;;;4995333;28;96607;-33
2023/01/15 13:29:15;;;;;;;6.30;2.40;;;6.60;99.90;;;;;;4995768;28;96772;-31
2023/01/15 13:31:58;;;;;;;5.95;2.03;;;6.60;99.90;;;;;;4995932;28;92119;-34
2023/01/15 13:34:44;;;;;;;5.25;1.83;;;6.50;99.90;;;;;;4996181;28;94198;-32
2023/01/15 13:37:25;;;;;;;6.20;2.08;;;6.50;99.90;;;;;;4995699;28;94453;-33
2023/01/15 13:39:55;;;;;;;5.63;2.17;;;6.50;99.90;;;;;;4996382;28;94180;-32
2023/01/15 13:42:34;;;;;;;5.80;2.53;;;6.50;99.90;;;;;;4996237;28;94427;-34
2023/01/15 13:45:18;;;;;;;7.30;2.50;;;6.50;99.90;;;;;;4996350;28;93195;-33
2023/01/15 13:47:51;;;;;;;4.13;2.10;;;6.50;99.90;;;;;;4996623;28;94739;-34
2023/01/15 13:50:29;;;;;;;6.20;2.47;;;6.50;99.90;;;;;;4999498;28;94126;-31
2023/01/15 13:53:17;;;;;;;7.60;3.25;;;6.50;99.90;;;;;;4999677;28;93905;-32
2023/01/15 13:55:51;;;;;;;9.10;3.47;;;6.60;99.90;;;;;;4999052;28;92600;-36
2023/01/15 13:58:21;;;;;;;12.82;3.10;;;6.60;99.90;;;;;;4999282;28;94453;-33
2023/01/15 14:00:47;;;;;;;10.30;3.08;;;6.70;99.90;;;;;;4998801;28;94602;-35
2023/01/15 14:03:37;;;;;;;5.85;2.17;;;6.80;99.90;;;;;;4999550;28;94751;-32
2023/01/15 14:06:05;;;;;;;9.35;2.15;;;6.90;99.90;;;;;;4999700;28;94293;-36